Time;durP1;ratioP1;P1;durP2;ratioP2;P2;SDS_P1;SDS_P2;PMS_P1;PMS_P2;Temp;Humidity;BMP_temperature;BMP_pressure;BME280_temperature;BME280_humidity;BME280_pressure;Samples;Min_cycle;Max_cycle;Signal;HPM_P1;HPM_P2
2022/08/13 00:04:51;;;;;;;11.85;8.33;;;;;;;23.68;100.00;99832.00;1649142;86;21575;-58
2022/08/13 00:07:11;;;;;;;13.75;8.95;;;;;;;23.68;100.00;99826.63;1697451;82;22092;-59
2022/08/13 00:09:41;;;;;;;9.58;8.68;;;;;;;23.79;100.00;99812.70;1719967;82;21485;-58
2022/08/13 00:15:01;;;;;;;9.73;8.13;;;;;;;23.79;100.00;99796.59;1713146;82;21575;-59
2022/08/13 00:17:30;;;;;;;10.10;8.18;;;;;;;23.71;100.00;99792.80;1713120;82;21592;-59
2022/08/13 00:19:56;;;;;;;15.63;8.33;;;;;;;23.69;100.00;99783.19;1727207;80;21794;-58
2022/08/13 00:22:25;;;;;;;9.98;7.85;;;;;;;23.65;100.00;99769.71;1718065;82;21015;-59
2022/08/13 00:24:52;;;;;;;9.10;8.28;;;;;;;23.66;100.00;99761.52;1729042;82;21550;-59
2022/08/13 00:27:22;;;;;;;;;;;;;;;23.71;100.00;99753.02;1726380;82;21424;-59
2022/08/13 00:29:53;;;;;;;13.93;7.50;;;;;;;23.71;100.00;99753.88;1720155;82;20422;-60
2022/08/13 00:32:21;;;;;;;9.33;8.15;;;;;;;23.66;100.00;99757.49;1729485;81;21891;-59
2022/08/13 00:34:49;;;;;;;8.90;7.40;;;;;;;23.65;100.00;99746.39;1725352;82;21029;-59
2022/08/13 00:37:16;;;;;;;11.63;7.37;;;;;;;23.66;100.00;99740.05;1734179;82;21495;-59
2022/08/13 00:39:42;;;;;;;8.95;6.85;;;;;;;23.70;100.00;99736.07;1722455;82;21001;-59
2022/08/13 00:42:09;;;;;;;7.92;7.08;;;;;;;23.78;100.00;99721.91;1722404;82;21464;-59
2022/08/13 00:44:38;;;;;;;8.68;6.60;;;;;;;23.78;100.00;99708.98;1683980;83;21959;-59
2022/08/13 00:49:50;;;;;;;7.70;6.90;;;;;;;23.73;100.00;99704.55;1689451;83;21054;-58
2022/08/13 00:52:17;;;;;;;8.00;6.70;;;;;;;23.78;100.00;99703.63;1682197;84;21543;-58
2022/08/13 00:54:43;;;;;;;8.03;6.78;;;;;;;23.78;100.00;99692.88;1684448;83;21530;-59
2022/08/13 00:57:12;;;;;;;7.60;6.80;;;;;;;23.79;100.00;99700.83;1694393;83;21919;-58
2022/08/13 00:59:38;;;;;;;8.08;6.65;;;;;;;23.79;99.98;99705.33;1668203;85;21049;-58
2022/08/13 01:02:05;;;;;;;7.62;6.35;;;;;;;23.76;100.00;99692.19;1675613;83;21018;-58
2022/08/13 01:04:31;;;;;;;6.95;6.03;;;;;;;23.73;100.00;99687.95;1687175;83;21603;-58
2022/08/13 01:07:01;;;;;;;7.08;6.37;;;;;;;23.69;99.56;99679.84;1689477;83;21484;-58
2022/08/13 01:09:29;;;;;;;7.83;6.25;;;;;;;23.71;99.55;99677.86;1692904;83;21497;-59
2022/08/13 01:11:59;;;;;;;10.28;6.85;;;;;;;23.68;99.92;99670.96;1684759;84;20973;-59
2022/08/13 01:14:32;;;;;;;6.40;5.90;;;;;;;23.69;98.99;99674.48;1687618;83;21457;-59
2022/08/13 01:17:01;;;;;;;6.62;5.92;;;;;;;23.74;98.34;99671.37;1673906;84;21498;-58
2022/08/13 01:19:31;;;;;;;6.53;5.92;;;;;;;23.70;98.12;99667.63;1681556;84;21448;-58
2022/08/13 01:21:57;;;;;;;10.78;5.92;;;;;;;23.70;99.23;99666.28;1679514;84;21830;-58
2022/08/13 01:24:24;;;;;;;;;;;;;;;23.78;98.93;99672.24;1680021;84;21531;-58
2022/08/13 01:26:53;;;;;;;13.85;6.28;;;;;;;23.77;97.88;99671.05;1679962;83;27117;-58
2022/08/13 01:29:20;;;;;;;7.50;6.78;;;;;;;23.66;98.44;99678.31;1669958;84;22500;-58
2022/08/13 01:31:49;;;;;;;7.75;6.28;;;;;;;23.64;97.99;99669.58;1668386;84;21513;-58
2022/08/13 01:34:15;;;;;;;12.50;6.35;;;;;;;23.60;97.72;99671.34;1678497;84;21810;-59
2022/08/13 01:36:42;;;;;;;7.72;6.05;;;;;;;23.55;98.55;99666.44;1674643;83;21424;-58
2022/08/13 01:39:10;;;;;;;12.90;6.17;;;;;;;23.52;99.26;99663.54;1685347;83;21437;-58
2022/08/13 01:41:38;;;;;;;;;;;;;;;23.48;99.24;99669.36;1687147;83;21033;-58
2022/08/13 01:44:05;;;;;;;11.73;6.53;;;;;;;23.39;99.58;99667.56;1686219;84;20488;-58
2022/08/13 01:50:29;;;;;;;8.00;5.87;;;;;;;23.40;99.86;99671.44;1689635;83;22233;-59
2022/08/13 01:51:47;;;;;;;9.58;5.70;;;;;;;23.43;100.00;99668.95;1536649;89;21515;-59
2022/08/13 01:54:17;;;;;;;7.12;6.17;;;;;;;23.44;100.00;99670.15;1648311;83;21529;-59
2022/08/13 01:56:42;;;;;;;6.97;5.80;;;;;;;23.48;98.75;99664.83;1676586;83;21531;-59
2022/08/13 01:59:09;;;;;;;8.78;5.95;;;;;;;23.49;99.04;99671.91;1674399;83;21828;-59
2022/08/13 02:01:36;;;;;;;10.05;5.97;;;;;;;23.50;99.76;99662.84;1678916;83;21563;-59
2022/08/13 02:04:06;;;;;;;7.78;6.53;;;;;;;23.46;99.91;99668.16;1668770;84;21542;-59
2022/08/13 02:06:31;;;;;;;7.67;5.78;;;;;;;23.40;100.00;99666.59;1676572;83;21537;-59
2022/08/13 02:09:00;;;;;;;7.42;6.10;;;;;;;23.37;100.00;99664.19;1680349;84;21429;-58
2022/08/13 02:11:31;;;;;;;5.83;5.33;;;;;;;23.34;100.00;99676.06;1689545;83;21888;-59
2022/08/13 02:13:59;;;;;;;11.93;6.17;;;;;;;23.28;100.00;99672.13;1676653;83;21556;-58
2022/08/13 02:16:30;;;;;;;;;;;;;;;23.23;100.00;99673.06;1675750;84;21464;-58
2022/08/13 02:18:57;;;;;;;11.18;5.85;;;;;;;23.18;100.00;99669.97;1673362;83;20433;-58
2022/08/13 02:21:25;;;;;;;12.17;5.93;;;;;;;23.15;100.00;99662.70;1725772;82;21572;-58
2022/08/13 02:23:57;;;;;;;8.13;5.87;;;;;;;23.08;100.00;99665.98;1712162;82;21827;-58
2022/08/13 02:26:24;;;;;;;8.35;5.62;;;;;;;23.06;100.00;99641.65;1714074;82;21507;-58
2022/08/13 02:28:51;;;;;;;10.65;6.65;;;;;;;23.02;100.00;99657.63;1718544;81;21599;-59
2022/08/13 02:31:18;;;;;;;9.95;6.65;;;;;;;23.08;100.00;99654.41;1720360;82;21455;-59
2022/08/13 02:33:45;;;;;;;7.25;6.15;;;;;;;23.08;100.00;99657.93;1720710;82;21428;-58
2022/08/13 02:36:12;;;;;;;8.38;6.12;;;;;;;23.05;100.00;99650.17;1718795;82;22086;-58
2022/08/13 02:38:38;;;;;;;9.15;6.78;;;;;;;23.06;100.00;99647.02;1684886;84;21591;-58
2022/08/13 02:43:50;;;;;;;9.55;6.10;;;;;;;23.11;100.00;99638.88;1714635;82;21441;-59
2022/08/13 02:46:19;;;;;;;12.13;6.65;;;;;;;23.07;100.00;99633.94;1707833;82;21449;-59
2022/08/13 02:48:46;;;;;;;6.47;5.75;;;;;;;23.02;100.00;99626.31;1703443;82;21976;-59
2022/08/13 02:51:12;;;;;;;7.25;5.87;;;;;;;23.07;100.00;99623.22;1724748;82;21590;-58
2022/08/13 02:53:39;;;;;;;8.78;5.90;;;;;;;23.06;100.00;99609.47;1714841;82;21520;-58
2022/08/13 02:56:08;;;;;;;8.78;6.20;;;;;;;22.97;100.00;99613.84;1718969;82;21491;-58
2022/08/13 02:58:45;;;;;;;8.25;5.87;;;;;;;22.95;100.00;99617.16;1721426;82;21517;-58
2022/08/13 03:01:10;;;;;;;9.70;6.22;;;;;;;22.94;100.00;99620.82;1714845;82;21822;-59
2022/08/13 03:03:36;;;;;;;7.62;5.62;;;;;;;22.96;100.00;99628.72;1705418;82;21505;-59
2022/08/13 03:06:04;;;;;;;7.20;6.15;;;;;;;22.96;100.00;99628.72;1726494;82;21615;-59
2022/08/13 03:08:30;;;;;;;10.28;6.62;;;;;;;22.96;100.00;99618.00;1711934;81;21017;-59
2022/08/13 03:10:59;;;;;;;9.53;6.33;;;;;;;22.97;100.00;99622.38;1716581;82;21487;-59
2022/08/13 03:13:30;;;;;;;11.65;5.75;;;;;;;23.00;100.00;99617.58;1700627;82;21829;-59
2022/08/13 03:15:57;;;;;;;7.40;6.15;;;;;;;23.06;100.00;99630.92;1716111;82;21542;-59
2022/08/13 03:18:24;;;;;;;7.17;5.87;;;;;;;23.07;100.00;99624.55;1710971;82;28878;-59
2022/08/13 03:20:51;;;;;;;7.90;6.08;;;;;;;23.01;100.00;99634.50;1709945;82;21441;-59
2022/08/13 03:23:17;;;;;;;8.53;6.55;;;;;;;23.00;100.00;99635.00;1722237;82;21470;-59
2022/08/13 03:25:44;;;;;;;8.00;5.95;;;;;;;23.01;100.00;99638.52;1722781;82;21882;-59
2022/08/13 03:28:11;;;;;;;8.90;5.75;;;;;;;23.01;100.00;99648.74;1720846;82;21557;-59
2022/08/13 03:30:37;;;;;;;9.00;5.45;;;;;;;23.02;100.00;99660.30;1722050;82;21453;-59
2022/08/13 03:33:07;;;;;;;11.90;5.92;;;;;;;23.02;100.00;99658.48;1716731;82;21519;-59
2022/08/13 03:35:36;;;;;;;9.78;6.50;;;;;;;23.06;100.00;99659.92;1719000;82;21513;-59
2022/08/13 03:38:03;;;;;;;9.60;6.35;;;;;;;23.09;100.00;99657.42;1713465;82;22198;-59
2022/08/13 03:41:00;;;;;;;;;;;;;;;23.13;100.00;99653.45;1701464;82;21551;-58
2022/08/13 03:43:08;;;;;;;12.05;6.35;;;;;;;23.16;100.00;99653.17;1660916;85;20417;-59
2022/08/13 03:45:36;;;;;;;12.80;6.00;;;;;;;23.17;100.00;99645.50;1706741;82;21511;-59
2022/08/13 03:48:04;;;;;;;11.45;5.55;;;;;;;23.12;100.00;99645.08;1712668;82;21042;-58
2022/08/13 03:50:30;;;;;;;;;;;;;;;23.17;100.00;99648.65;1719133;82;21778;-58
2022/08/13 03:53:04;;;;;;;9.98;5.95;;;;;;;23.18;100.00;99656.55;1724413;82;20412;-59
2022/08/13 03:55:33;;;;;;;9.83;6.03;;;;;;;23.20;100.00;99657.75;1715522;82;21602;-58
2022/08/13 03:58:00;;;;;;;8.95;6.20;;;;;;;23.24;100.00;99650.59;1716880;82;21484;-58
2022/08/13 04:00:29;;;;;;;9.33;5.67;;;;;;;23.25;100.00;99654.98;1715717;82;21574;-58
2022/08/13 04:02:56;;;;;;;11.93;5.95;;;;;;;23.25;100.00;99658.17;1723201;82;21855;-58
2022/08/13 04:05:23;;;;;;;7.85;5.45;;;;;;;23.19;100.00;99677.03;1713476;82;20955;-57
2022/08/13 04:07:51;;;;;;;7.50;5.67;;;;;;;23.17;100.00;99682.17;1712350;82;21552;-57
2022/08/13 04:10:18;;;;;;;10.53;6.42;;;;;;;23.13;100.00;99684.30;1712781;82;21402;-59
2022/08/13 04:12:46;;;;;;;11.28;5.72;;;;;;;23.05;100.00;99695.75;1722670;81;21018;-59
2022/08/13 04:15:12;;;;;;;8.23;5.30;;;;;;;23.01;100.00;99702.36;1716905;82;21575;-59
2022/08/13 04:17:40;;;;;;;10.58;5.87;;;;;;;23.00;100.00;99708.73;1711369;82;21558;-58
2022/08/13 04:20:10;;;;;;;11.03;6.78;;;;;;;23.03;100.00;99703.56;1725835;82;21432;-58
2022/08/13 04:22:37;;;;;;;10.15;5.65;;;;;;;23.08;100.00;99702.68;1722306;81;21495;-58
2022/08/13 04:25:06;;;;;;;9.00;6.40;;;;;;;23.03;100.00;99692.38;1718422;82;21062;-58
2022/08/13 04:27:34;;;;;;;11.38;6.33;;;;;;;22.99;100.00;99687.42;1721079;82;21494;-58
2022/08/13 04:30:04;;;;;;;9.07;5.90;;;;;;;22.97;100.00;99692.09;1714675;82;21926;-58
2022/08/13 04:32:42;;;;;;;8.63;6.00;;;;;;;22.94;100.00;99696.75;1721571;81;21543;-58
2022/08/13 04:35:09;;;;;;;7.83;6.15;;;;;;;22.90;100.00;99704.70;1724364;81;20993;-59
2022/08/13 04:37:37;;;;;;;7.50;5.70;;;;;;;22.90;100.00;99705.20;1711364;82;21498;-57
2022/08/13 04:40:05;;;;;;;;;;;;;;;22.91;100.00;99706.41;1718205;82;22000;-57
2022/08/13 04:42:54;;;;;;;7.50;5.45;;;;;;;22.89;100.00;99709.73;1718749;82;20462;-58
2022/08/13 04:45:23;;;;;;;11.08;6.20;;;;;;;22.89;100.00;99711.07;1715258;80;21594;-59
2022/08/13 04:47:49;;;;;;;17.05;6.35;;;;;;;22.94;100.00;99706.60;1726788;80;21456;-60
2022/08/13 04:50:16;;;;;;;11.70;5.80;;;;;;;22.94;100.00;99707.95;1728157;82;21058;-59
2022/08/13 04:52:44;;;;;;;10.80;5.70;;;;;;;22.86;100.00;99710.51;1720750;82;21553;-59
2022/08/13 04:55:12;;;;;;;9.15;6.45;;;;;;;22.86;100.00;99711.84;1727911;82;21612;-59
2022/08/13 04:57:41;;;;;;;8.93;5.90;;;;;;;22.86;100.00;99720.73;1722503;82;21479;-59
2022/08/13 05:00:09;;;;;;;12.35;6.40;;;;;;;22.86;100.00;99703.30;1728878;82;20954;-59
2022/08/13 05:02:41;;;;;;;11.70;5.92;;;;;;;22.85;100.00;99697.61;1728142;82;21511;-60
2022/08/13 05:05:11;;;;;;;8.78;5.53;;;;;;;22.85;100.00;99704.78;1719786;82;21809;-60
2022/08/13 05:07:38;;;;;;;9.78;5.92;;;;;;;22.93;100.00;99699.06;1728322;82;21452;-60
2022/08/13 05:10:06;;;;;;;;;;;;;;;22.96;100.00;99694.41;1730489;82;21479;-59
2022/08/13 05:12:36;;;;;;;8.93;5.62;;;;;;;22.89;100.00;99692.30;1722024;82;20222;-63
2022/08/13 05:15:06;;;;;;;12.35;6.62;;;;;;;22.86;100.00;99686.38;1718086;82;21514;-59
2022/08/13 05:17:32;;;;;;;10.40;5.90;;;;;;;22.84;100.00;99687.86;1726403;82;21822;-60
2022/08/13 05:19:59;;;;;;;9.38;6.12;;;;;;;22.88;100.00;99685.74;1718902;82;21602;-59
2022/08/13 05:22:28;;;;;;;7.75;5.87;;;;;;;22.95;100.00;99688.20;1726803;82;21023;-59
2022/08/13 05:24:55;;;;;;;10.70;6.12;;;;;;;22.97;100.00;99676.00;1724331;82;21483;-59
2022/08/13 05:27:21;;;;;;;15.85;7.35;;;;;;;23.01;100.00;99684.94;1725518;82;21412;-59
2022/08/13 05:29:48;;;;;;;9.08;6.42;;;;;;;23.06;100.00;99681.36;1730023;82;21795;-60
2022/08/13 05:32:15;;;;;;;12.15;5.97;;;;;;;23.16;100.00;99677.81;1715922;82;21930;-59
2022/08/13 05:34:41;;;;;;;8.93;5.75;;;;;;;23.20;100.00;99674.68;1717648;82;21592;-60
2022/08/13 05:37:15;;;;;;;12.13;6.03;;;;;;;23.29;100.00;99679.67;1720534;82;21455;-59
2022/08/13 05:39:37;;;;;;;7.55;5.83;;;;;;;23.35;100.00;99676.91;1718105;82;21489;-59
2022/08/13 05:42:06;;;;;;;7.43;5.97;;;;;;;23.42;100.00;99678.02;1728840;82;21720;-59
2022/08/13 05:44:34;;;;;;;8.95;6.40;;;;;;;23.49;100.00;99673.25;1718913;82;21532;-59
2022/08/13 05:47:01;;;;;;;8.63;6.83;;;;;;;23.58;100.00;99668.80;1731667;82;21562;-58
2022/08/13 05:49:28;;;;;;;10.80;6.97;;;;;;;23.63;100.00;99666.53;1721573;82;21653;-59
2022/08/13 05:51:54;;;;;;;7.87;6.27;;;;;;;23.76;100.00;99672.05;1721118;82;21499;-59
2022/08/13 05:54:22;;;;;;;11.30;6.42;;;;;;;23.77;100.00;99665.20;1727792;82;21757;-59
2022/08/13 05:56:49;;;;;;;9.63;5.83;;;;;;;23.84;100.00;99658.75;1731022;82;21443;-59
2022/08/13 06:04:47;;;;;;;10.75;7.12;;;;;;;23.83;100.00;99645.84;1719395;82;21477;-60
2022/08/13 06:07:18;;;;;;;9.65;7.35;;;;;;;23.80;100.00;99661.39;1728665;82;21880;-60
2022/08/13 06:09:42;;;;;;;9.45;7.40;;;;;;;23.82;100.00;99672.82;1726966;82;21545;-60
2022/08/13 06:12:09;;;;;;;12.07;8.00;;;;;;;23.87;100.00;99669.20;1720540;82;21470;-60
2022/08/13 06:14:36;;;;;;;13.30;7.65;;;;;;;24.02;100.00;99656.94;1717068;82;21073;-60
2022/08/13 06:17:03;;;;;;;16.82;8.58;;;;;;;24.17;100.00;99661.80;1719835;81;21536;-60
2022/08/13 06:19:32;;;;;;;11.17;8.17;;;;;;;24.27;100.00;99658.52;1722249;82;21720;-60
2022/08/13 06:22:02;;;;;;;8.93;7.87;;;;;;;24.30;100.00;99667.63;1722222;82;21569;-59
2022/08/13 06:24:32;;;;;;;11.18;7.80;;;;;;;24.34;100.00;99660.11;1728066;82;21053;-60
2022/08/13 06:27:01;;;;;;;9.95;8.13;;;;;;;24.33;100.00;99661.09;1722592;82;21574;-60
2022/08/13 06:29:29;;;;;;;8.08;7.28;;;;;;;24.34;100.00;99656.08;1721576;82;21505;-58
2022/08/13 06:31:56;;;;;;;11.28;7.97;;;;;;;24.37;100.00;99649.87;1720162;82;21895;-59
2022/08/13 06:34:22;;;;;;;10.55;8.55;;;;;;;24.42;100.00;99650.77;1717369;82;21597;-59
2022/08/13 06:36:49;;;;;;;9.75;7.25;;;;;;;24.52;100.00;99651.55;1726077;82;21437;-58
2022/08/13 06:39:17;;;;;;;13.60;7.95;;;;;;;24.59;100.00;99643.72;1670914;82;21432;-59
2022/08/13 06:41:44;;;;;;;9.78;7.90;;;;;;;24.64;100.00;99642.25;1729762;80;20990;-59
2022/08/13 06:44:11;;;;;;;12.82;8.58;;;;;;;24.75;100.00;99652.39;1720447;82;21873;-59
2022/08/13 06:46:39;;;;;;;10.45;7.95;;;;;;;24.89;100.00;99658.55;1720377;82;20969;-59
2022/08/13 06:49:05;;;;;;;10.95;7.28;;;;;;;25.05;100.00;99648.39;1724694;82;21610;-59
2022/08/13 06:51:32;;;;;;;10.18;7.08;;;;;;;25.17;100.00;99639.57;1720408;82;21058;-60
2022/08/13 06:53:59;;;;;;;13.70;8.90;;;;;;;25.26;100.00;99635.95;1726284;82;21594;-59
2022/08/13 06:56:29;;;;;;;8.23;7.40;;;;;;;25.38;100.00;99636.50;1722431;82;21518;-59
2022/08/13 06:58:58;;;;;;;12.82;7.90;;;;;;;25.47;100.00;99631.98;1716535;82;21477;-58
2022/08/13 07:01:27;;;;;;;12.07;7.62;;;;;;;25.55;100.00;99625.30;1718309;82;21575;-61
2022/08/13 07:03:56;;;;;;;12.37;7.65;;;;;;;25.73;100.00;99627.87;1707229;82;21519;-60
2022/08/13 07:06:26;;;;;;;9.63;7.75;;;;;;;25.89;100.00;99619.84;1722640;82;21531;-60
2022/08/13 07:08:56;;;;;;;8.35;7.40;;;;;;;26.01;100.00;99618.56;1710252;82;22141;-60
2022/08/13 07:11:24;;;;;;;9.05;7.30;;;;;;;26.15;100.00;99606.27;1709864;81;21550;-60
2022/08/13 07:13:58;;;;;;;8.53;7.60;;;;;;;26.25;100.00;99604.76;1723232;82;21569;-60
2022/08/13 07:16:30;;;;;;;10.40;8.55;;;;;;;26.33;100.00;99591.79;1719143;82;21539;-60
2022/08/13 07:19:18;;;;;;;9.88;8.05;;;;;;;26.36;99.92;99601.73;1726396;82;21011;-60
2022/08/13 07:21:45;;;;;;;9.78;8.13;;;;;;;26.35;98.85;99597.84;1636804;85;21809;-59
2022/08/13 07:24:11;;;;;;;9.25;7.83;;;;;;;26.40;98.07;99599.54;1597093;88;21579;-59
2022/08/13 07:26:38;;;;;;;9.43;8.03;;;;;;;26.51;97.35;99587.58;1593096;87;21588;-60
2022/08/13 07:29:06;;;;;;;10.70;7.20;;;;;;;26.48;96.09;99587.91;1624708;86;21533;-59
2022/08/13 07:31:34;;;;;;;8.38;7.35;;;;;;;26.47;96.29;99584.38;1633843;86;22390;-59
2022/08/13 07:34:06;;;;;;;11.08;7.67;;;;;;;26.42;96.66;99600.21;1649217;85;22184;-59
2022/08/13 07:36:37;;;;;;;13.78;8.40;;;;;;;26.37;97.21;99614.69;1602764;87;21624;-59
2022/08/13 07:39:11;;;;;;;13.60;8.10;;;;;;;26.27;95.31;99614.86;1646820;85;21001;-59
2022/08/13 07:41:45;;;;;;;14.55;7.83;;;;;;;26.17;95.07;99604.25;1600681;87;21693;-59
2022/08/13 07:44:20;;;;;;;11.22;7.95;;;;;;;25.93;94.47;99598.33;1598663;87;21588;-59
2022/08/13 07:47:10;;;;;;;11.15;8.53;;;;;;;25.79;94.84;99598.96;1690460;82;21852;-59
2022/08/13 07:49:37;;;;;;;14.63;8.98;;;;;;;25.61;97.65;99605.28;1728240;81;21461;-59
2022/08/13 07:52:05;;;;;;;14.10;7.57;;;;;;;25.49;100.00;99628.14;1698279;81;21647;-59
2022/08/13 07:54:34;;;;;;;11.68;8.15;;;;;;;25.45;100.00;99633.00;1725516;81;21590;-59
2022/08/13 07:57:01;;;;;;;12.98;7.85;;;;;;;25.41;100.00;99646.45;1728304;81;21609;-59
2022/08/13 07:59:29;;;;;;;10.95;8.30;;;;;;;25.27;100.00;99640.83;1729580;81;21925;-60
2022/08/13 08:01:55;;;;;;;10.48;8.00;;;;;;;25.22;100.00;99643.95;1713390;81;21026;-59
2022/08/13 08:04:30;;;;;;;13.00;8.55;;;;;;;25.12;100.00;99644.06;1725595;81;21590;-59
2022/08/13 08:06:57;;;;;;;10.90;8.28;;;;;;;25.06;100.00;99635.30;1724658;81;20979;-59
2022/08/13 08:09:30;;;;;;;19.17;8.58;;;;;;;25.01;100.00;99640.30;1715097;81;21520;-59
2022/08/13 08:14:39;;;;;;;12.00;8.53;;;;;;;24.97;100.00;99648.35;1655359;82;21570;-58
2022/08/13 08:17:08;;;;;;;8.80;7.83;;;;;;;24.92;100.00;99644.80;1708254;82;20990;-58
2022/08/13 08:19:37;;;;;;;12.35;8.28;;;;;;;24.94;100.00;99637.90;1713208;82;21514;-58
2022/08/13 08:22:04;;;;;;;13.13;8.53;;;;;;;24.95;100.00;99639.59;1694669;83;21607;-59
2022/08/13 08:24:32;;;;;;;10.40;8.98;;;;;;;25.02;100.00;99633.42;1704013;83;21761;-59
2022/08/13 08:27:04;;;;;;;;;;;;;;;25.16;100.00;99623.08;1715084;82;21100;-59
2022/08/13 08:29:33;;;;;;;12.45;7.95;;;;;;;25.32;100.00;99643.88;1715188;81;20481;-59
2022/08/13 08:32:01;;;;;;;10.35;7.75;;;;;;;25.39;100.00;99647.59;1717241;82;21486;-59
2022/08/13 08:34:28;;;;;;;12.13;8.85;;;;;;;25.47;100.00;99654.86;1708322;82;21405;-60
2022/08/13 08:36:55;;;;;;;14.68;8.80;;;;;;;25.58;100.00;99650.05;1719205;82;21772;-59
2022/08/13 08:42:40;;;;;;;10.15;8.73;;;;;;;25.82;100.00;99643.04;1707155;82;21053;-64
2022/08/13 08:44:42;;;;;;;13.08;8.45;;;;;;;25.83;100.00;99640.70;1694960;82;21022;-61
2022/08/13 08:47:10;;;;;;;10.30;8.35;;;;;;;25.81;100.00;99627.91;1710880;81;21591;-61
2022/08/13 08:49:39;;;;;;;12.73;8.53;;;;;;;25.82;100.00;99625.54;1711457;82;21812;-66
2022/08/13 08:52:06;;;;;;;13.03;9.78;;;;;;;25.79;98.92;99625.89;1705978;82;21483;-60
2022/08/13 08:54:33;;;;;;;12.65;9.58;;;;;;;25.73;98.87;99627.39;1716477;82;21527;-59
2022/08/13 08:56:59;;;;;;;12.63;9.30;;;;;;;25.67;98.96;99626.67;1718759;82;21500;-60
2022/08/13 08:59:46;;;;;;;14.25;9.68;;;;;;;25.57;100.00;99638.92;1716085;82;21073;-60
2022/08/13 09:02:18;;;;;;;12.67;9.90;;;;;;;25.59;100.00;99637.42;1719960;81;21753;-61
2022/08/13 09:04:53;;;;;;;14.90;9.78;;;;;;;25.55;100.00;99634.21;1711110;81;21681;-60
2022/08/13 09:07:14;;;;;;;13.50;9.88;;;;;;;25.52;100.00;99634.53;1707764;81;21460;-60
2022/08/13 09:09:42;;;;;;;12.70;9.68;;;;;;;25.41;100.00;99618.67;1710741;81;21141;-59
2022/08/13 09:12:12;;;;;;;13.65;10.20;;;;;;;25.34;100.00;99613.62;1708483;82;21634;-59
2022/08/13 09:14:38;;;;;;;15.15;9.60;;;;;;;25.23;100.00;99610.70;1660041;82;21775;-59
2022/08/13 09:17:04;;;;;;;13.85;9.85;;;;;;;25.21;100.00;99605.95;1714594;82;21500;-58
2022/08/13 09:19:31;;;;;;;15.18;10.48;;;;;;;25.17;100.00;99609.47;1716044;82;21568;-58
2022/08/13 09:21:59;;;;;;;18.50;11.35;;;;;;;25.18;100.00;99615.69;1711848;82;21599;-59
2022/08/13 09:24:25;;;;;;;15.93;11.10;;;;;;;25.20;100.00;99614.54;1706376;82;21571;-64
2022/08/13 09:26:52;;;;;;;11.15;9.80;;;;;;;25.15;100.00;99616.86;1709383;82;21633;-60
2022/08/13 09:29:22;;;;;;;12.13;10.80;;;;;;;25.08;100.00;99613.11;1706403;82;21602;-58
2022/08/13 09:31:50;;;;;;;11.63;10.40;;;;;;;25.12;100.00;99610.95;1719505;82;21536;-61
2022/08/13 09:34:18;;;;;;;12.30;10.23;;;;;;;25.08;100.00;99592.11;1721045;82;21425;-61
2022/08/13 09:36:45;;;;;;;17.05;10.50;;;;;;;25.06;100.00;99592.27;1711768;82;21405;-63
2022/08/13 09:39:38;;;;;;;11.45;10.13;;;;;;;25.02;100.00;99593.59;1708906;82;21700;-62
2022/08/13 09:42:12;;;;;;;13.83;10.23;;;;;;;24.97;100.00;99585.98;1679804;82;21468;-61
2022/08/13 09:44:41;;;;;;;11.93;10.50;;;;;;;25.00;100.00;99591.56;1721207;82;21565;-61
2022/08/13 09:47:12;;;;;;;11.68;10.10;;;;;;;24.98;100.00;99585.51;1714174;82;21586;-61
2022/08/13 09:49:38;;;;;;;13.15;10.53;;;;;;;25.02;100.00;99577.45;1736986;81;21566;-62
2022/08/13 09:52:05;;;;;;;11.60;10.05;;;;;;;25.00;100.00;99579.47;1722873;81;21807;-59
2022/08/13 09:54:34;;;;;;;13.38;10.15;;;;;;;25.03;100.00;99585.84;1727374;81;21565;-59
2022/08/13 09:57:01;;;;;;;13.00;10.80;;;;;;;25.08;100.00;99586.22;1723702;81;21426;-60
2022/08/13 09:59:29;;;;;;;13.40;11.00;;;;;;;25.16;100.00;99592.14;1740718;81;20971;-59
2022/08/13 10:01:56;;;;;;;12.35;10.60;;;;;;;25.25;100.00;99587.17;1739468;81;21650;-59
2022/08/13 10:04:26;;;;;;;15.00;11.48;;;;;;;25.35;100.00;99593.76;1726173;81;22101;-59
2022/08/13 10:06:54;;;;;;;14.95;10.98;;;;;;;25.42;100.00;99591.60;1733585;81;21590;-59
2022/08/13 10:09:20;;;;;;;12.65;10.85;;;;;;;25.56;100.00;99583.42;1719425;82;21509;-63
2022/08/13 10:11:47;;;;;;;14.45;10.88;;;;;;;25.71;100.00;99586.33;1717714;82;21496;-60
2022/08/13 10:14:13;;;;;;;12.20;10.82;;;;;;;25.89;100.00;99578.61;1712598;82;21445;-59
2022/08/13 10:16:40;;;;;;;12.82;11.28;;;;;;;26.05;100.00;99574.63;1708766;82;21844;-60
2022/08/13 10:19:08;;;;;;;15.75;11.63;;;;;;;26.24;100.00;99573.45;1710763;82;21017;-59
2022/08/13 10:21:35;;;;;;;16.40;11.57;;;;;;;26.46;100.00;99568.38;1719376;82;21559;-59
2022/08/13 10:24:02;;;;;;;18.47;11.30;;;;;;;26.88;100.00;99550.63;1713286;82;21528;-59
2022/08/13 10:26:29;;;;;;;15.00;11.57;;;;;;;26.88;100.00;99550.63;1715844;82;22336;-59
2022/08/13 10:28:56;;;;;;;12.28;10.68;;;;;;;27.07;100.00;99545.82;1705037;82;21659;-59
2022/08/13 10:31:27;;;;;;;12.33;11.10;;;;;;;27.24;100.00;99536.66;1713282;82;21018;-60
2022/08/13 10:33:54;;;;;;;14.20;12.00;;;;;;;27.50;100.00;99537.73;1703271;82;21587;-61
2022/08/13 10:36:21;;;;;;;12.75;10.72;;;;;;;27.78;100.00;99526.39;1706388;82;21063;-60
2022/08/13 10:38:48;;;;;;;14.98;10.10;;;;;;;27.89;100.00;99521.95;1718756;82;21412;-60
2022/08/13 10:41:15;;;;;;;13.25;10.88;;;;;;;28.03;100.00;99514.94;1706111;82;21780;-61
2022/08/13 10:43:41;;;;;;;14.65;10.65;;;;;;;28.26;100.00;99513.55;1721042;82;21495;-60
2022/08/13 10:46:12;;;;;;;15.45;10.72;;;;;;;28.42;100.00;99507.64;1710244;82;21509;-60
2022/08/13 10:48:39;;;;;;;16.00;10.45;;;;;;;28.59;99.49;99502.94;1712510;82;21479;-59
2022/08/13 10:51:05;;;;;;;12.85;10.85;;;;;;;28.77;98.29;99498.52;1716430;82;21740;-61
2022/08/13 10:56:18;;;;;;;12.03;9.20;;;;;;;29.13;95.04;99491.83;1718043;82;21437;-60
2022/08/13 10:58:44;;;;;;;13.83;10.03;;;;;;;29.34;93.01;99488.84;1710566;82;21447;-60
2022/08/13 11:04:11;;;;;;;13.85;9.83;;;;;;;29.03;96.73;99492.09;1796609;78;23209;-59
2022/08/13 11:06:38;;;;;;;11.70;10.03;;;;;;;29.49;92.35;99478.27;1767558;80;21431;-60
2022/08/13 11:09:06;;;;;;;14.30;9.70;;;;;;;29.58;88.89;99465.97;1766062;78;21899;-58
2022/08/13 11:11:34;;;;;;;14.28;9.70;;;;;;;29.67;87.21;99460.75;1765060;80;21545;-60
2022/08/13 11:14:01;;;;;;;11.78;9.48;;;;;;;29.78;84.19;99449.92;1768336;79;21585;-61
2022/08/13 11:19:05;;;;;;;13.88;9.98;;;;;;;29.89;82.25;99442.61;1773485;80;21576;-59
2022/08/13 11:21:30;;;;;;;17.10;9.73;;;;;;;29.88;80.92;99445.02;1755848;78;21804;-60
2022/08/13 11:23:56;;;;;;;16.02;9.48;;;;;;;29.99;81.74;99448.55;1769847;79;21604;-60
2022/08/13 11:26:23;;;;;;;12.03;9.30;;;;;;;30.17;82.02;99443.97;1764559;78;21534;-60
2022/08/13 11:28:50;;;;;;;10.63;9.48;;;;;;;30.36;83.32;99447.05;1773018;79;21490;-64
2022/08/13 11:31:16;;;;;;;12.03;8.53;;;;;;;30.54;80.24;99435.70;1774576;79;21527;-61
2022/08/13 11:33:43;;;;;;;11.93;10.03;;;;;;;30.68;77.12;99425.21;1764535;80;22214;-60
2022/08/13 11:36:10;;;;;;;11.35;9.30;;;;;;;30.74;75.57;99430.34;1781819;79;20959;-61
2022/08/13 11:38:36;;;;;;;11.20;9.03;;;;;;;30.83;74.08;99429.14;1769488;79;21053;-61
2022/08/13 11:41:03;;;;;;;10.93;9.78;;;;;;;30.92;72.77;99419.81;1775057;79;21522;-60
2022/08/13 11:43:31;;;;;;;11.53;9.20;;;;;;;31.07;74.24;99424.25;1780135;79;21645;-60
2022/08/13 11:45:57;;;;;;;14.60;9.08;;;;;;;31.23;73.74;99421.14;1772805;79;21763;-60
2022/08/13 11:48:24;;;;;;;12.93;9.33;;;;;;;31.33;70.83;99416.17;1770707;79;21446;-61
2022/08/13 11:50:51;;;;;;;13.53;9.10;;;;;;;31.40;69.66;99412.95;1760238;79;21551;-61
2022/08/13 11:53:18;;;;;;;13.43;9.48;;;;;;;31.47;70.22;99410.25;1769175;79;21517;-60
2022/08/13 11:55:45;;;;;;;15.45;9.43;;;;;;;31.50;68.95;99409.85;1757953;80;21396;-61
2022/08/13 11:58:11;;;;;;;16.65;10.30;;;;;;;31.43;65.06;99407.08;1770653;79;22077;-62
2022/08/13 12:00:40;;;;;;;16.77;9.27;;;;;;;31.40;66.71;99411.59;1768698;78;21589;-61
2022/08/13 12:03:06;;;;;;;10.15;8.98;;;;;;;31.40;65.64;99407.52;1764030;80;21522;-61